Pagrindinis puslapis
METAR-TAF:

METAR-TAF

Oro uostai :

Neiva, Kolumbija

platuma: 02-58N, ilguma: 075-18W, Aukštis: 439 m

Dabartinis oras

Ataskaita buvo paskelbta 25 minutes, ne 12:00 UTC
Vėjas 2 kt nuo kintamojo kryptimis
Temperatūra 23°C
Drėgmė 94%
Slėgis 1016 hPa
Matomumas 10 km arba daugiau
Mažai debesys ne aukštis 2000 ft
Su prošvaistėmis ne aukštis 11000 ft

METAR: SKNV 041200Z VRB02KT 9999 FEW020 BKN110 23/22 A2999

Laikas: 07:25 (12:25 UTC)


TAF: trūkstamas

Orai ataskaitas ir orų prognozės (METAR, TAF).

turimą stotys yra geltonos ir raudonos taškus žemėlapyje.

Perkelti pele per norėdami pamatyti stoties vardą.

Tada spustelėkite, norėdami matyti oro stebėjimo ir prognozės.

Norėdami pakeisti žemėlapį: spustelėkite ant žalios mygtukų su juodo kryžiaus žemyn,; žalią mygtuką su brūkšneliu, jei norite nutolinti; arba žalių rodyklių gretimoms žemėlapius.


METAR-TAF: